sensor_id;sensor_type;location;lat;lon;timestamp;temperature;humidity
51825;DHT22;37879;52.986;6.282;2023-07-29T00:01:51;18.70;99.90
51825;DHT22;37879;52.986;6.282;2023-07-29T00:04:17;18.70;99.90
51825;DHT22;37879;52.986;6.282;2023-07-29T00:06:43;18.70;99.90
51825;DHT22;37879;52.986;6.282;2023-07-29T00:09:08;18.60;99.90
51825;DHT22;37879;52.986;6.282;2023-07-29T00:11:34;18.60;99.90
51825;DHT22;37879;52.986;6.282;2023-07-29T00:14:01;18.70;99.90
51825;DHT22;37879;52.986;6.282;2023-07-29T00:16:27;18.70;99.90
51825;DHT22;37879;52.986;6.282;2023-07-29T00:18:52;18.70;99.90
51825;DHT22;37879;52.986;6.282;2023-07-29T00:21:18;18.60;99.90
51825;DHT22;37879;52.986;6.282;2023-07-29T00:23:44;18.60;99.90
51825;DHT22;37879;52.986;6.282;2023-07-29T00:26:10;18.60;99.90
51825;DHT22;37879;52.986;6.282;2023-07-29T00:28:36;18.60;99.90
51825;DHT22;37879;52.986;6.282;2023-07-29T00:31:02;18.60;99.90
51825;DHT22;37879;52.986;6.282;2023-07-29T00:33:27;18.50;99.90
51825;DHT22;37879;52.986;6.282;2023-07-29T00:35:53;18.50;99.90
51825;DHT22;37879;52.986;6.282;2023-07-29T00:38:19;18.50;99.90
51825;DHT22;37879;52.986;6.282;2023-07-29T00:40:44;18.40;99.90
51825;DHT22;37879;52.986;6.282;2023-07-29T00:43:10;18.40;99.90
51825;DHT22;37879;52.986;6.282;2023-07-29T00:45:36;18.30;99.90
51825;DHT22;37879;52.986;6.282;2023-07-29T00:48:03;18.30;99.90
51825;DHT22;37879;52.986;6.282;2023-07-29T00:50:31;18.30;99.90
51825;DHT22;37879;52.986;6.282;2023-07-29T00:52:58;18.30;99.90
51825;DHT22;37879;52.986;6.282;2023-07-29T00:55:24;18.30;99.90
51825;DHT22;37879;52.986;6.282;2023-07-29T00:57:51;18.20;99.90
51825;DHT22;37879;52.986;6.282;2023-07-29T01:00:20;18.20;99.90
51825;DHT22;37879;52.986;6.282;2023-07-29T01:02:45;18.10;99.90
51825;DHT22;37879;52.986;6.282;2023-07-29T01:05:12;18.10;99.90
51825;DHT22;37879;52.986;6.282;2023-07-29T01:07:59;18.10;99.90
51825;DHT22;37879;52.986;6.282;2023-07-29T01:13:19;18.10;99.90
51825;DHT22;37879;52.986;6.282;2023-07-29T01:15:53;18.00;99.90
51825;DHT22;37879;52.986;6.282;2023-07-29T01:18:28;18.00;99.90
51825;DHT22;37879;52.986;6.282;2023-07-29T01:20:59;17.90;99.90
51825;DHT22;37879;52.986;6.282;2023-07-29T01:23:31;17.90;99.90
51825;DHT22;37879;52.986;6.282;2023-07-29T01:25:57;17.80;99.90
51825;DHT22;37879;52.986;6.282;2023-07-29T01:28:23;17.80;99.90
51825;DHT22;37879;52.986;6.282;2023-07-29T01:30:52;17.80;99.90
51825;DHT22;37879;52.986;6.282;2023-07-29T01:33:26;17.70;99.90
51825;DHT22;37879;52.986;6.282;2023-07-29T01:35:58;17.70;99.90
51825;DHT22;37879;52.986;6.282;2023-07-29T01:38:35;17.60;99.90
51825;DHT22;37879;52.986;6.282;2023-07-29T01:41:01;17.60;99.90
51825;DHT22;37879;52.986;6.282;2023-07-29T01:43:29;17.60;99.90
51825;DHT22;37879;52.986;6.282;2023-07-29T01:45:55;17.50;99.90
51825;DHT22;37879;52.986;6.282;2023-07-29T01:48:20;17.50;99.90
51825;DHT22;37879;52.986;6.282;2023-07-29T01:50:47;17.50;99.90
51825;DHT22;37879;52.986;6.282;2023-07-29T01:53:12;17.40;99.90
51825;DHT22;37879;52.986;6.282;2023-07-29T01:55:39;17.40;99.90
51825;DHT22;37879;52.986;6.282;2023-07-29T01:58:04;17.40;99.90
51825;DHT22;37879;52.986;6.282;2023-07-29T02:00:30;17.40;99.90
51825;DHT22;37879;52.986;6.282;2023-07-29T02:02:56;17.00;99.90
51825;DHT22;37879;52.986;6.282;2023-07-29T02:05:21;17.30;99.90
51825;DHT22;37879;52.986;6.282;2023-07-29T02:07:47;17.40;99.90
51825;DHT22;37879;52.986;6.282;2023-07-29T02:10:12;17.30;99.90
51825;DHT22;37879;52.986;6.282;2023-07-29T02:12:38;17.30;99.90
51825;DHT22;37879;52.986;6.282;2023-07-29T02:15:04;17.50;99.90
51825;DHT22;37879;52.986;6.282;2023-07-29T02:17:31;17.30;99.90
51825;DHT22;37879;52.986;6.282;2023-07-29T02:19:56;17.30;99.90
51825;DHT22;37879;52.986;6.282;2023-07-29T02:22:22;17.20;99.90
51825;DHT22;37879;52.986;6.282;2023-07-29T02:24:48;17.20;99.90
51825;DHT22;37879;52.986;6.282;2023-07-29T02:27:13;17.20;99.90
51825;DHT22;37879;52.986;6.282;2023-07-29T02:29:39;17.20;99.90
51825;DHT22;37879;52.986;6.282;2023-07-29T02:32:05;17.20;99.90
51825;DHT22;37879;52.986;6.282;2023-07-29T02:34:31;17.20;99.90
51825;DHT22;37879;52.986;6.282;2023-07-29T02:36:56;17.20;99.90
51825;DHT22;37879;52.986;6.282;2023-07-29T02:39:22;17.10;99.90
51825;DHT22;37879;52.986;6.282;2023-07-29T02:41:48;17.20;99.90
51825;DHT22;37879;52.986;6.282;2023-07-29T02:44:15;17.20;99.90
51825;DHT22;37879;52.986;6.282;2023-07-29T02:46:40;17.20;99.90
51825;DHT22;37879;52.986;6.282;2023-07-29T02:49:06;17.60;99.90
51825;DHT22;37879;52.986;6.282;2023-07-29T02:51:31;17.10;99.90
51825;DHT22;37879;52.986;6.282;2023-07-29T02:53:57;17.10;99.90
51825;DHT22;37879;52.986;6.282;2023-07-29T02:56:23;17.10;99.90
51825;DHT22;37879;52.986;6.282;2023-07-29T02:58:49;17.10;99.90
51825;DHT22;37879;52.986;6.282;2023-07-29T03:01:16;17.10;99.90
51825;DHT22;37879;52.986;6.282;2023-07-29T03:03:42;17.10;99.90
51825;DHT22;37879;52.986;6.282;2023-07-29T03:06:09;17.10;99.90
51825;DHT22;37879;52.986;6.282;2023-07-29T03:08:36;17.00;99.90
51825;DHT22;37879;52.986;6.282;2023-07-29T03:11:09;17.00;99.90
51825;DHT22;37879;52.986;6.282;2023-07-29T03:13:36;17.00;99.90
51825;DHT22;37879;52.986;6.282;2023-07-29T03:16:14;16.90;99.90
51825;DHT22;37879;52.986;6.282;2023-07-29T03:18:41;16.90;99.90
51825;DHT22;37879;52.986;6.282;2023-07-29T03:21:07;16.90;99.90
51825;DHT22;37879;52.986;6.282;2023-07-29T03:23:33;16.80;99.90
51825;DHT22;37879;52.986;6.282;2023-07-29T03:26:00;16.80;99.90
51825;DHT22;37879;52.986;6.282;2023-07-29T03:28:28;16.80;99.90
51825;DHT22;37879;52.986;6.282;2023-07-29T03:30:55;16.80;99.90
51825;DHT22;37879;52.986;6.282;2023-07-29T03:33:21;16.80;99.90
51825;DHT22;37879;52.986;6.282;2023-07-29T03:35:47;16.80;99.90
51825;DHT22;37879;52.986;6.282;2023-07-29T03:38:13;16.70;99.90
51825;DHT22;37879;52.986;6.282;2023-07-29T03:40:39;16.70;99.90
51825;DHT22;37879;52.986;6.282;2023-07-29T03:43:05;16.70;99.90
51825;DHT22;37879;52.986;6.282;2023-07-29T03:45:31;16.70;99.90
51825;DHT22;37879;52.986;6.282;2023-07-29T03:47:57;16.70;99.90
51825;DHT22;37879;52.986;6.282;2023-07-29T03:50:22;16.70;99.90
51825;DHT22;37879;52.986;6.282;2023-07-29T03:52:48;16.70;99.90
51825;DHT22;37879;52.986;6.282;2023-07-29T03:55:14;16.60;99.90
51825;DHT22;37879;52.986;6.282;2023-07-29T03:57:40;16.60;99.90
51825;DHT22;37879;52.986;6.282;2023-07-29T04:00:06;16.60;99.90
51825;DHT22;37879;52.986;6.282;2023-07-29T04:02:31;16.60;99.90
51825;DHT22;37879;52.986;6.282;2023-07-29T04:04:57;16.60;99.90
51825;DHT22;37879;52.986;6.282;2023-07-29T04:07:23;16.60;99.90
51825;DHT22;37879;52.986;6.282;2023-07-29T04:09:49;16.60;99.90
51825;DHT22;37879;52.986;6.282;2023-07-29T04:12:15;16.60;99.90
51825;DHT22;37879;52.986;6.282;2023-07-29T04:14:41;16.70;99.90
51825;DHT22;37879;52.986;6.282;2023-07-29T04:17:07;16.70;99.90
51825;DHT22;37879;52.986;6.282;2023-07-29T04:19:33;16.70;99.90
51825;DHT22;37879;52.986;6.282;2023-07-29T04:21:58;16.70;99.90
51825;DHT22;37879;52.986;6.282;2023-07-29T04:24:24;16.70;99.90
51825;DHT22;37879;52.986;6.282;2023-07-29T04:26:50;16.70;99.90
51825;DHT22;37879;52.986;6.282;2023-07-29T04:29:16;16.70;99.90
51825;DHT22;37879;52.986;6.282;2023-07-29T04:31:41;16.70;99.90
51825;DHT22;37879;52.986;6.282;2023-07-29T04:34:08;16.70;99.90
51825;DHT22;37879;52.986;6.282;2023-07-29T04:36:34;16.70;99.90
51825;DHT22;37879;52.986;6.282;2023-07-29T04:39:00;16.70;99.90
51825;DHT22;37879;52.986;6.282;2023-07-29T04:41:26;16.80;99.90
51825;DHT22;37879;52.986;6.282;2023-07-29T04:43:51;16.80;99.90
51825;DHT22;37879;52.986;6.282;2023-07-29T04:46:18;16.90;99.90
51825;DHT22;37879;52.986;6.282;2023-07-29T04:48:43;17.00;99.90
51825;DHT22;37879;52.986;6.282;2023-07-29T04:51:09;16.90;99.90
51825;DHT22;37879;52.986;6.282;2023-07-29T04:53:34;16.90;99.90
51825;DHT22;37879;52.986;6.282;2023-07-29T04:56:02;17.00;99.90
51825;DHT22;37879;52.986;6.282;2023-07-29T04:58:28;17.00;99.90
51825;DHT22;37879;52.986;6.282;2023-07-29T05:00:55;17.10;99.90
51825;DHT22;37879;52.986;6.282;2023-07-29T05:03:21;17.10;99.90
51825;DHT22;37879;52.986;6.282;2023-07-29T05:05:47;17.00;99.90
51825;DHT22;37879;52.986;6.282;2023-07-29T05:08:12;17.10;99.90
51825;DHT22;37879;52.986;6.282;2023-07-29T05:10:38;17.10;99.90
51825;DHT22;37879;52.986;6.282;2023-07-29T05:13:04;17.10;99.90
51825;DHT22;37879;52.986;6.282;2023-07-29T05:15:29;17.10;99.90
51825;DHT22;37879;52.986;6.282;2023-07-29T05:17:56;17.10;99.90
51825;DHT22;37879;52.986;6.282;2023-07-29T05:20:21;17.20;99.90
51825;DHT22;37879;52.986;6.282;2023-07-29T05:22:47;17.20;99.90
51825;DHT22;37879;52.986;6.282;2023-07-29T05:25:12;17.20;99.90
51825;DHT22;37879;52.986;6.282;2023-07-29T05:27:38;17.30;99.90
51825;DHT22;37879;52.986;6.282;2023-07-29T05:30:04;17.30;99.90
51825;DHT22;37879;52.986;6.282;2023-07-29T05:32:30;17.30;99.90
51825;DHT22;37879;52.986;6.282;2023-07-29T05:34:55;17.30;99.90
51825;DHT22;37879;52.986;6.282;2023-07-29T05:37:21;17.40;99.90
51825;DHT22;37879;52.986;6.282;2023-07-29T05:39:47;17.30;99.90
51825;DHT22;37879;52.986;6.282;2023-07-29T05:42:12;17.40;99.90
51825;DHT22;37879;52.986;6.282;2023-07-29T05:44:38;17.40;99.90
51825;DHT22;37879;52.986;6.282;2023-07-29T05:47:04;17.40;99.90
51825;DHT22;37879;52.986;6.282;2023-07-29T05:49:30;17.40;99.90
51825;DHT22;37879;52.986;6.282;2023-07-29T05:51:55;17.40;99.90
51825;DHT22;37879;52.986;6.282;2023-07-29T05:54:21;17.50;99.90
51825;DHT22;37879;52.986;6.282;2023-07-29T05:56:46;17.40;99.90
51825;DHT22;37879;52.986;6.282;2023-07-29T05:59:12;17.40;99.90
51825;DHT22;37879;52.986;6.282;2023-07-29T06:01:37;17.40;99.90
51825;DHT22;37879;52.986;6.282;2023-07-29T06:04:03;17.50;99.90
51825;DHT22;37879;52.986;6.282;2023-07-29T06:06:29;17.50;99.90
51825;DHT22;37879;52.986;6.282;2023-07-29T06:08:55;17.60;99.90
51825;DHT22;37879;52.986;6.282;2023-07-29T06:11:20;17.60;99.90
51825;DHT22;37879;52.986;6.282;2023-07-29T06:13:47;17.70;99.90
51825;DHT22;37879;52.986;6.282;2023-07-29T06:16:13;17.70;99.90
51825;DHT22;37879;52.986;6.282;2023-07-29T06:18:39;17.80;99.90
51825;DHT22;37879;52.986;6.282;2023-07-29T06:21:04;18.00;99.90
51825;DHT22;37879;52.986;6.282;2023-07-29T06:23:33;18.10;99.90
51825;DHT22;37879;52.986;6.282;2023-07-29T06:25:59;18.30;99.90
51825;DHT22;37879;52.986;6.282;2023-07-29T06:28:26;18.40;99.90
51825;DHT22;37879;52.986;6.282;2023-07-29T06:30:52;18.50;99.90
51825;DHT22;37879;52.986;6.282;2023-07-29T06:33:18;18.50;99.90
51825;DHT22;37879;52.986;6.282;2023-07-29T06:35:43;18.50;99.90
51825;DHT22;37879;52.986;6.282;2023-07-29T06:38:09;18.50;99.90
51825;DHT22;37879;52.986;6.282;2023-07-29T06:40:35;18.50;99.90
51825;DHT22;37879;52.986;6.282;2023-07-29T06:43:00;18.60;99.90
51825;DHT22;37879;52.986;6.282;2023-07-29T06:45:26;18.70;99.90
51825;DHT22;37879;52.986;6.282;2023-07-29T06:47:52;18.80;99.90
51825;DHT22;37879;52.986;6.282;2023-07-29T06:50:17;18.90;99.90
51825;DHT22;37879;52.986;6.282;2023-07-29T06:52:43;19.00;99.90
51825;DHT22;37879;52.986;6.282;2023-07-29T06:55:09;19.10;99.90
51825;DHT22;37879;52.986;6.282;2023-07-29T06:57:34;19.20;99.90
51825;DHT22;37879;52.986;6.282;2023-07-29T07:00:00;19.30;99.90
51825;DHT22;37879;52.986;6.282;2023-07-29T07:02:26;19.30;99.90
51825;DHT22;37879;52.986;6.282;2023-07-29T07:04:52;19.40;99.90
51825;DHT22;37879;52.986;6.282;2023-07-29T07:07:17;19.30;99.90
51825;DHT22;37879;52.986;6.282;2023-07-29T07:09:43;19.30;99.90
51825;DHT22;37879;52.986;6.282;2023-07-29T07:12:08;19.30;99.90
51825;DHT22;37879;52.986;6.282;2023-07-29T07:14:34;19.20;99.90
51825;DHT22;37879;52.986;6.282;2023-07-29T07:17:00;19.20;99.90
51825;DHT22;37879;52.986;6.282;2023-07-29T07:19:25;19.20;99.90
51825;DHT22;37879;52.986;6.282;2023-07-29T07:21:51;19.30;99.90
51825;DHT22;37879;52.986;6.282;2023-07-29T07:24:17;19.40;99.90
51825;DHT22;37879;52.986;6.282;2023-07-29T07:26:42;19.40;99.90
51825;DHT22;37879;52.986;6.282;2023-07-29T07:29:08;19.40;99.90
51825;DHT22;37879;52.986;6.282;2023-07-29T07:31:34;19.40;99.90
51825;DHT22;37879;52.986;6.282;2023-07-29T07:34:00;19.40;99.90
51825;DHT22;37879;52.986;6.282;2023-07-29T07:36:27;19.40;99.90
51825;DHT22;37879;52.986;6.282;2023-07-29T07:38:53;19.40;99.90
51825;DHT22;37879;52.986;6.282;2023-07-29T07:41:18;19.50;99.90
51825;DHT22;37879;52.986;6.282;2023-07-29T07:43:44;19.60;99.90
51825;DHT22;37879;52.986;6.282;2023-07-29T07:46:10;19.80;99.90
51825;DHT22;37879;52.986;6.282;2023-07-29T07:48:35;19.90;99.90
51825;DHT22;37879;52.986;6.282;2023-07-29T07:51:10;20.10;99.90
51825;DHT22;37879;52.986;6.282;2023-07-29T07:53:36;19.90;99.90
51825;DHT22;37879;52.986;6.282;2023-07-29T07:56:02;20.30;99.90
51825;DHT22;37879;52.986;6.282;2023-07-29T07:58:27;20.40;99.90
51825;DHT22;37879;52.986;6.282;2023-07-29T08:01:03;20.30;99.90
51825;DHT22;37879;52.986;6.282;2023-07-29T08:03:30;20.20;99.90
51825;DHT22;37879;52.986;6.282;2023-07-29T08:05:55;20.20;99.90
51825;DHT22;37879;52.986;6.282;2023-07-29T08:08:21;20.10;99.90
51825;DHT22;37879;52.986;6.282;2023-07-29T08:10:47;20.10;99.90
51825;DHT22;37879;52.986;6.282;2023-07-29T08:13:12;20.00;99.90
51825;DHT22;37879;52.986;6.282;2023-07-29T08:15:38;20.00;99.90
51825;DHT22;37879;52.986;6.282;2023-07-29T08:18:03;20.20;99.90
51825;DHT22;37879;52.986;6.282;2023-07-29T08:20:29;20.40;99.90
51825;DHT22;37879;52.986;6.282;2023-07-29T08:22:55;20.60;99.90
51825;DHT22;37879;52.986;6.282;2023-07-29T08:25:20;20.70;99.90
51825;DHT22;37879;52.986;6.282;2023-07-29T08:27:46;20.70;99.90
51825;DHT22;37879;52.986;6.282;2023-07-29T08:30:12;20.70;99.90
51825;DHT22;37879;52.986;6.282;2023-07-29T08:32:37;20.70;99.90
51825;DHT22;37879;52.986;6.282;2023-07-29T08:35:03;20.80;99.90
51825;DHT22;37879;52.986;6.282;2023-07-29T08:37:29;20.70;99.90
51825;DHT22;37879;52.986;6.282;2023-07-29T08:39:55;20.80;99.90
51825;DHT22;37879;52.986;6.282;2023-07-29T08:42:21;20.80;99.90
51825;DHT22;37879;52.986;6.282;2023-07-29T08:44:49;20.70;99.90
51825;DHT22;37879;52.986;6.282;2023-07-29T08:47:16;20.70;99.90
51825;DHT22;37879;52.986;6.282;2023-07-29T08:49:42;20.70;99.90
51825;DHT22;37879;52.986;6.282;2023-07-29T08:52:09;20.70;99.90
51825;DHT22;37879;52.986;6.282;2023-07-29T08:54:35;20.80;99.90
51825;DHT22;37879;52.986;6.282;2023-07-29T08:57:01;20.90;99.90
51825;DHT22;37879;52.986;6.282;2023-07-29T08:59:28;21.00;99.90
51825;DHT22;37879;52.986;6.282;2023-07-29T09:01:54;21.20;99.90
51825;DHT22;37879;52.986;6.282;2023-07-29T09:04:23;21.30;99.90
51825;DHT22;37879;52.986;6.282;2023-07-29T09:06:50;21.40;99.90
51825;DHT22;37879;52.986;6.282;2023-07-29T09:09:16;21.40;99.90
51825;DHT22;37879;52.986;6.282;2023-07-29T09:11:43;21.40;99.90
51825;DHT22;37879;52.986;6.282;2023-07-29T09:14:09;21.40;99.90
51825;DHT22;37879;52.986;6.282;2023-07-29T09:16:35;21.50;99.90
51825;DHT22;37879;52.986;6.282;2023-07-29T09:19:03;21.50;99.90
51825;DHT22;37879;52.986;6.282;2023-07-29T09:21:29;21.50;99.90
51825;DHT22;37879;52.986;6.282;2023-07-29T09:23:55;21.50;99.90
51825;DHT22;37879;52.986;6.282;2023-07-29T09:26:28;21.40;99.90
51825;DHT22;37879;52.986;6.282;2023-07-29T09:28:55;21.40;99.90
51825;DHT22;37879;52.986;6.282;2023-07-29T09:31:23;21.50;99.90
51825;DHT22;37879;52.986;6.282;2023-07-29T09:33:49;21.60;99.90
51825;DHT22;37879;52.986;6.282;2023-07-29T09:36:15;21.80;99.90
51825;DHT22;37879;52.986;6.282;2023-07-29T09:38:41;21.90;99.90
51825;DHT22;37879;52.986;6.282;2023-07-29T09:41:09;22.00;99.90
51825;DHT22;37879;52.986;6.282;2023-07-29T09:43:36;22.10;99.90
51825;DHT22;37879;52.986;6.282;2023-07-29T09:46:03;22.10;99.90
51825;DHT22;37879;52.986;6.282;2023-07-29T09:48:33;22.10;99.90
51825;DHT22;37879;52.986;6.282;2023-07-29T09:50:59;22.10;99.90
51825;DHT22;37879;52.986;6.282;2023-07-29T09:53:26;22.10;99.90
51825;DHT22;37879;52.986;6.282;2023-07-29T09:55:53;22.20;99.90
51825;DHT22;37879;52.986;6.282;2023-07-29T09:58:28;22.20;99.90
51825;DHT22;37879;52.986;6.282;2023-07-29T10:00:53;22.20;99.90
51825;DHT22;37879;52.986;6.282;2023-07-29T10:03:21;22.20;99.90
51825;DHT22;37879;52.986;6.282;2023-07-29T10:05:47;22.20;99.90
51825;DHT22;37879;52.986;6.282;2023-07-29T10:08:14;22.20;99.90
51825;DHT22;37879;52.986;6.282;2023-07-29T10:10:42;22.10;99.90
51825;DHT22;37879;52.986;6.282;2023-07-29T10:13:09;22.00;99.90
51825;DHT22;37879;52.986;6.282;2023-07-29T10:15:35;21.90;99.90
51825;DHT22;37879;52.986;6.282;2023-07-29T10:18:01;21.80;99.90
51825;DHT22;37879;52.986;6.282;2023-07-29T10:20:30;21.80;99.90
51825;DHT22;37879;52.986;6.282;2023-07-29T10:22:59;21.80;99.90
51825;DHT22;37879;52.986;6.282;2023-07-29T10:25:28;21.90;99.90
51825;DHT22;37879;52.986;6.282;2023-07-29T10:28:01;22.00;99.90
51825;DHT22;37879;52.986;6.282;2023-07-29T10:30:30;22.10;99.90
51825;DHT22;37879;52.986;6.282;2023-07-29T10:32:58;22.00;99.90
51825;DHT22;37879;52.986;6.282;2023-07-29T10:35:24;21.90;99.90
51825;DHT22;37879;52.986;6.282;2023-07-29T10:37:51;21.70;99.90
51825;DHT22;37879;52.986;6.282;2023-07-29T10:40:18;21.50;99.90
51825;DHT22;37879;52.986;6.282;2023-07-29T10:43:10;21.20;99.90
51825;DHT22;37879;52.986;6.282;2023-07-29T10:45:40;21.10;99.90
51825;DHT22;37879;52.986;6.282;2023-07-29T10:48:10;21.10;99.90
51825;DHT22;37879;52.986;6.282;2023-07-29T10:50:36;21.20;99.90
51825;DHT22;37879;52.986;6.282;2023-07-29T10:53:02;21.30;99.90
51825;DHT22;37879;52.986;6.282;2023-07-29T10:55:35;21.50;99.90
51825;DHT22;37879;52.986;6.282;2023-07-29T11:00:31;21.80;99.90
51825;DHT22;37879;52.986;6.282;2023-07-29T11:03:06;21.90;99.90
51825;DHT22;37879;52.986;6.282;2023-07-29T11:05:52;22.00;99.90
51825;DHT22;37879;52.986;6.282;2023-07-29T11:08:26;22.10;99.90
51825;DHT22;37879;52.986;6.282;2023-07-29T11:11:03;22.10;99.90
51825;DHT22;37879;52.986;6.282;2023-07-29T11:13:31;22.00;99.90
51825;DHT22;37879;52.986;6.282;2023-07-29T11:15:57;22.10;99.90
51825;DHT22;37879;52.986;6.282;2023-07-29T11:18:32;22.20;99.90
51825;DHT22;37879;52.986;6.282;2023-07-29T11:20:58;22.20;99.90
51825;DHT22;37879;52.986;6.282;2023-07-29T11:23:35;22.30;99.90
51825;DHT22;37879;52.986;6.282;2023-07-29T11:26:02;22.40;99.90
51825;DHT22;37879;52.986;6.282;2023-07-29T11:28:28;22.40;99.90
51825;DHT22;37879;52.986;6.282;2023-07-29T11:30:55;22.40;99.90
51825;DHT22;37879;52.986;6.282;2023-07-29T11:33:23;22.50;99.90
51825;DHT22;37879;52.986;6.282;2023-07-29T11:35:49;22.50;99.90
51825;DHT22;37879;52.986;6.282;2023-07-29T11:38:16;22.40;99.90
51825;DHT22;37879;52.986;6.282;2023-07-29T11:40:42;22.30;99.90
51825;DHT22;37879;52.986;6.282;2023-07-29T11:43:08;22.10;99.90
51825;DHT22;37879;52.986;6.282;2023-07-29T11:45:34;22.00;99.90
51825;DHT22;37879;52.986;6.282;2023-07-29T11:48:01;21.90;99.90
51825;DHT22;37879;52.986;6.282;2023-07-29T11:50:27;21.90;99.90
51825;DHT22;37879;52.986;6.282;2023-07-29T11:52:52;21.80;99.90
51825;DHT22;37879;52.986;6.282;2023-07-29T11:55:18;21.80;99.90
51825;DHT22;37879;52.986;6.282;2023-07-29T11:57:51;21.70;99.90
51825;DHT22;37879;52.986;6.282;2023-07-29T12:00:17;21.70;99.90
51825;DHT22;37879;52.986;6.282;2023-07-29T12:02:44;21.70;99.90
51825;DHT22;37879;52.986;6.282;2023-07-29T12:05:11;21.90;99.90
51825;DHT22;37879;52.986;6.282;2023-07-29T12:07:42;22.00;99.90
51825;DHT22;37879;52.986;6.282;2023-07-29T12:10:09;22.20;99.90
51825;DHT22;37879;52.986;6.282;2023-07-29T12:12:53;22.20;99.90
51825;DHT22;37879;52.986;6.282;2023-07-29T12:15:26;22.20;99.90
51825;DHT22;37879;52.986;6.282;2023-07-29T12:17:56;22.20;99.90
51825;DHT22;37879;52.986;6.282;2023-07-29T12:20:22;22.40;99.90
51825;DHT22;37879;52.986;6.282;2023-07-29T12:22:56;22.60;99.90
51825;DHT22;37879;52.986;6.282;2023-07-29T12:25:22;22.90;99.90
51825;DHT22;37879;52.986;6.282;2023-07-29T12:27:48;23.10;99.90
51825;DHT22;37879;52.986;6.282;2023-07-29T12:30:14;23.20;99.90
51825;DHT22;37879;52.986;6.282;2023-07-29T12:32:44;23.20;99.90
51825;DHT22;37879;52.986;6.282;2023-07-29T12:35:10;23.20;99.90
51825;DHT22;37879;52.986;6.282;2023-07-29T12:37:36;23.00;99.90
51825;DHT22;37879;52.986;6.282;2023-07-29T12:40:04;22.90;99.90
51825;DHT22;37879;52.986;6.282;2023-07-29T12:42:30;22.80;99.90
51825;DHT22;37879;52.986;6.282;2023-07-29T12:44:56;22.80;99.90
51825;DHT22;37879;52.986;6.282;2023-07-29T12:47:21;22.80;99.90
51825;DHT22;37879;52.986;6.282;2023-07-29T12:49:47;22.90;99.90
51825;DHT22;37879;52.986;6.282;2023-07-29T12:52:13;23.00;99.90
51825;DHT22;37879;52.986;6.282;2023-07-29T12:54:39;23.00;99.90
51825;DHT22;37879;52.986;6.282;2023-07-29T12:57:06;23.00;99.90
51825;DHT22;37879;52.986;6.282;2023-07-29T12:59:31;23.00;99.90
51825;DHT22;37879;52.986;6.282;2023-07-29T13:01:57;23.00;99.90
51825;DHT22;37879;52.986;6.282;2023-07-29T13:04:23;23.20;99.90
51825;DHT22;37879;52.986;6.282;2023-07-29T13:06:48;23.50;99.90
51825;DHT22;37879;52.986;6.282;2023-07-29T13:09:14;23.80;99.90
51825;DHT22;37879;52.986;6.282;2023-07-29T13:11:39;24.00;99.90
51825;DHT22;37879;52.986;6.282;2023-07-29T13:14:05;24.00;99.90
51825;DHT22;37879;52.986;6.282;2023-07-29T13:16:31;23.90;99.90
51825;DHT22;37879;52.986;6.282;2023-07-29T13:18:57;24.00;99.90
51825;DHT22;37879;52.986;6.282;2023-07-29T13:21:23;24.10;99.90
51825;DHT22;37879;52.986;6.282;2023-07-29T13:23:48;24.10;99.90
51825;DHT22;37879;52.986;6.282;2023-07-29T13:26:14;24.10;99.90
51825;DHT22;37879;52.986;6.282;2023-07-29T13:28:40;24.00;99.90
51825;DHT22;37879;52.986;6.282;2023-07-29T13:31:05;23.70;99.90
51825;DHT22;37879;52.986;6.282;2023-07-29T13:33:31;23.60;99.90
51825;DHT22;37879;52.986;6.282;2023-07-29T13:36:00;23.40;99.90
51825;DHT22;37879;52.986;6.282;2023-07-29T13:38:25;23.30;99.90
51825;DHT22;37879;52.986;6.282;2023-07-29T13:40:51;23.40;99.90
51825;DHT22;37879;52.986;6.282;2023-07-29T13:43:16;23.50;99.90
51825;DHT22;37879;52.986;6.282;2023-07-29T13:45:42;23.60;99.90
51825;DHT22;37879;52.986;6.282;2023-07-29T13:48:08;23.70;99.90
51825;DHT22;37879;52.986;6.282;2023-07-29T13:50:34;23.70;99.90
51825;DHT22;37879;52.986;6.282;2023-07-29T13:52:59;23.90;99.90
51825;DHT22;37879;52.986;6.282;2023-07-29T13:55:25;24.00;99.90
51825;DHT22;37879;52.986;6.282;2023-07-29T13:57:51;24.20;99.90
51825;DHT22;37879;52.986;6.282;2023-07-29T14:00:17;24.20;99.90
51825;DHT22;37879;52.986;6.282;2023-07-29T14:02:43;24.20;99.90
51825;DHT22;37879;52.986;6.282;2023-07-29T14:05:09;24.10;99.90
51825;DHT22;37879;52.986;6.282;2023-07-29T14:07:37;24.10;99.90
51825;DHT22;37879;52.986;6.282;2023-07-29T14:10:03;24.20;99.90
51825;DHT22;37879;52.986;6.282;2023-07-29T14:12:28;24.30;99.90
51825;DHT22;37879;52.986;6.282;2023-07-29T14:14:54;24.50;99.90
51825;DHT22;37879;52.986;6.282;2023-07-29T14:17:20;24.50;99.90
51825;DHT22;37879;52.986;6.282;2023-07-29T14:19:46;24.50;99.90
51825;DHT22;37879;52.986;6.282;2023-07-29T14:22:11;24.50;99.90
51825;DHT22;37879;52.986;6.282;2023-07-29T14:24:37;24.40;99.90
51825;DHT22;37879;52.986;6.282;2023-07-29T14:27:03;24.20;99.90
51825;DHT22;37879;52.986;6.282;2023-07-29T14:29:29;24.20;99.90
51825;DHT22;37879;52.986;6.282;2023-07-29T14:31:54;24.20;99.90
51825;DHT22;37879;52.986;6.282;2023-07-29T14:34:20;24.10;99.90
51825;DHT22;37879;52.986;6.282;2023-07-29T14:36:45;24.20;99.90
51825;DHT22;37879;52.986;6.282;2023-07-29T14:39:11;24.20;99.90
51825;DHT22;37879;52.986;6.282;2023-07-29T14:41:37;24.30;99.90
51825;DHT22;37879;52.986;6.282;2023-07-29T14:44:02;24.40;99.90
51825;DHT22;37879;52.986;6.282;2023-07-29T14:46:28;24.60;99.90
51825;DHT22;37879;52.986;6.282;2023-07-29T14:48:54;24.60;99.90
51825;DHT22;37879;52.986;6.282;2023-07-29T14:51:19;24.70;99.90
51825;DHT22;37879;52.986;6.282;2023-07-29T14:53:45;24.70;99.90
51825;DHT22;37879;52.986;6.282;2023-07-29T14:56:11;24.70;99.90
51825;DHT22;37879;52.986;6.282;2023-07-29T14:58:39;24.70;99.90
51825;DHT22;37879;52.986;6.282;2023-07-29T15:01:04;24.70;99.90
51825;DHT22;37879;52.986;6.282;2023-07-29T15:03:30;24.80;99.90
51825;DHT22;37879;52.986;6.282;2023-07-29T15:05:56;24.80;99.90
51825;DHT22;37879;52.986;6.282;2023-07-29T15:08:23;24.80;99.90
51825;DHT22;37879;52.986;6.282;2023-07-29T15:10:50;24.90;99.90
51825;DHT22;37879;52.986;6.282;2023-07-29T15:13:16;25.00;99.90
51825;DHT22;37879;52.986;6.282;2023-07-29T15:15:45;25.10;99.90
51825;DHT22;37879;52.986;6.282;2023-07-29T15:18:11;25.20;99.90
51825;DHT22;37879;52.986;6.282;2023-07-29T15:20:36;25.30;99.90
51825;DHT22;37879;52.986;6.282;2023-07-29T15:23:02;25.40;99.90
51825;DHT22;37879;52.986;6.282;2023-07-29T15:25:28;25.40;99.90
51825;DHT22;37879;52.986;6.282;2023-07-29T15:27:54;25.40;99.90
51825;DHT22;37879;52.986;6.282;2023-07-29T15:30:19;25.40;99.90
51825;DHT22;37879;52.986;6.282;2023-07-29T15:32:45;25.40;99.90